createdAt,value
2022-11-23T00:02:37.260Z,96809.00
2022-11-23T00:05:14.833Z,96807.00
2022-11-23T00:08:02.196Z,96816.00
2022-11-23T00:10:43.170Z,96802.00
2022-11-23T00:17:31.331Z,96794.00
2022-11-23T00:24:21.074Z,96801.00
2022-11-23T00:27:13.629Z,96814.00
2022-11-23T00:30:07.875Z,96808.00
2022-11-23T00:32:42.535Z,96802.00
2022-11-23T00:35:25.448Z,96803.00
2022-11-23T00:38:48.896Z,96810.00
2022-11-23T00:42:02.458Z,96805.00
2022-11-23T00:44:37.305Z,96809.00
2022-11-23T00:48:29.201Z,96805.00
2022-11-23T00:51:05.097Z,96809.00
2022-11-23T00:54:02.597Z,96813.00
2022-11-23T00:57:42.581Z,96810.00
2022-11-23T01:01:31.099Z,96804.00
2022-11-23T01:05:12.514Z,96804.00
2022-11-23T01:07:55.410Z,96793.00
2022-11-23T01:10:30.666Z,96790.00
2022-11-23T01:13:07.650Z,96804.00
2022-11-23T01:15:50.502Z,96812.00
2022-11-23T01:18:48.990Z,96798.00
2022-11-23T01:21:27.071Z,96807.00
2022-11-23T01:24:19.762Z,96807.00
2022-11-23T01:27:36.664Z,96805.00
2022-11-23T01:30:37.125Z,96815.00
2022-11-23T01:33:11.976Z,96826.00
2022-11-23T01:36:25.644Z,96830.00
2022-11-23T01:39:38.711Z,96833.00
2022-11-23T01:42:53.045Z,96826.00
2022-11-23T01:46:13.006Z,96819.00
2022-11-23T01:49:02.708Z,96815.00
2022-11-23T01:51:47.710Z,96814.00
2022-11-23T01:54:27.542Z,96829.00
2022-11-23T01:57:44.305Z,96814.00
2022-11-23T02:00:39.601Z,96788.00
2022-11-23T02:03:25.657Z,96829.00
2022-11-23T02:06:05.718Z,96819.00
2022-11-23T02:08:40.638Z,96832.00
2022-11-23T02:11:31.542Z,96835.00
2022-11-23T02:15:23.427Z,96835.00
2022-11-23T02:18:38.533Z,96828.00
2022-11-23T02:21:21.779Z,96838.00
2022-11-23T02:24:09.796Z,96823.00
2022-11-23T02:27:46.944Z,96832.00
2022-11-23T02:30:35.091Z,96836.00
2022-11-23T02:33:25.725Z,96837.00
2022-11-23T02:36:02.022Z,96827.00
2022-11-23T02:39:08.398Z,96815.00
2022-11-23T02:41:52.395Z,96829.00
2022-11-23T02:44:39.866Z,96836.00
2022-11-23T02:47:33.024Z,96828.00
2022-11-23T02:50:08.741Z,96833.00
2022-11-23T02:52:50.266Z,96831.00
2022-11-23T02:55:49.174Z,96839.00
2022-11-23T02:59:14.299Z,96843.00
2022-11-23T03:01:55.627Z,96856.00
2022-11-23T03:05:06.831Z,96843.00
2022-11-23T03:07:44.228Z,96840.00
2022-11-23T03:10:26.156Z,96840.00
2022-11-23T03:13:42.997Z,96847.00
2022-11-23T03:16:17.839Z,96855.00
2022-11-23T03:19:19.299Z,96840.00
2022-11-23T03:22:03.351Z,96835.00
2022-11-23T03:25:18.706Z,96845.00
2022-11-23T03:28:13.663Z,96823.00
2022-11-23T03:30:48.175Z,96838.00
2022-11-23T03:33:24.952Z,96849.00
2022-11-23T03:40:21.088Z,96830.00
2022-11-23T03:43:33.398Z,96828.00
2022-11-23T03:46:22.047Z,96830.00
2022-11-23T03:50:12.510Z,96833.00
2022-11-23T03:53:19.116Z,96821.00
2022-11-23T03:56:12.509Z,96832.00
2022-11-23T03:58:55.794Z,96844.00
2022-11-23T04:02:12.965Z,96824.00
2022-11-23T04:05:07.988Z,96809.00
2022-11-23T04:07:42.680Z,96796.00
2022-11-23T04:10:31.775Z,96808.00
2022-11-23T04:13:39.469Z,96809.00
2022-11-23T04:16:13.874Z,96796.00
2022-11-23T04:19:01.864Z,96812.00
2022-11-23T04:21:55.479Z,96800.00
2022-11-23T04:25:34.934Z,96814.00
2022-11-23T04:28:25.518Z,96808.00
2022-11-23T04:31:03.229Z,96807.00
2022-11-23T04:33:58.488Z,96817.00
2022-11-23T04:37:01.396Z,96816.00
2022-11-23T04:40:01.357Z,96816.00
2022-11-23T04:42:58.837Z,96817.00
2022-11-23T04:45:50.803Z,96811.00
2022-11-23T04:48:33.848Z,96822.00
2022-11-23T04:51:08.801Z,96819.00
2022-11-23T04:55:00.433Z,96818.00
2022-11-23T04:58:26.830Z,96812.00
2022-11-23T05:01:33.059Z,96791.00
2022-11-23T05:08:21.704Z,96805.00
2022-11-23T05:11:09.743Z,96789.00
2022-11-23T05:18:06.596Z,96810.00
2022-11-23T05:21:05.690Z,96801.00
2022-11-23T05:24:54.637Z,96811.00
2022-11-23T05:28:16.513Z,96819.00
2022-11-23T05:30:58.894Z,96808.00
2022-11-23T05:34:36.716Z,96800.00
2022-11-23T05:37:37.552Z,96796.00
2022-11-23T05:40:13.391Z,96802.00
2022-11-23T05:43:24.163Z,96806.00
2022-11-23T05:46:24.827Z,96802.00
2022-11-23T05:49:36.843Z,96805.00
2022-11-23T05:52:13.583Z,96797.00
2022-11-23T05:54:55.584Z,96803.00
2022-11-23T05:57:55.039Z,96795.00
2022-11-23T06:01:37.039Z,96803.00
2022-11-23T06:08:35.191Z,96794.00
2022-11-23T06:15:16.758Z,96799.00
2022-11-23T06:22:04.986Z,96797.00
2022-11-23T06:25:55.125Z,96788.00
2022-11-23T06:32:43.878Z,96793.00
2022-11-23T06:39:27.400Z,96801.00
2022-11-23T06:46:31.533Z,96805.00
2022-11-23T06:49:22.759Z,96810.00
2022-11-23T06:52:01.643Z,96794.00
2022-11-23T06:55:18.885Z,96814.00
2022-11-23T06:58:01.532Z,96807.00
2022-11-23T07:02:05.680Z,96822.00
2022-11-23T07:05:26.560Z,96820.00
2022-11-23T07:08:53.240Z,96831.00
2022-11-23T07:12:41.502Z,96828.00
2022-11-23T07:16:19.016Z,96813.00
2022-11-23T07:18:55.576Z,96821.00
2022-11-23T07:22:30.757Z,96826.00
2022-11-23T07:26:18.131Z,96839.00
2022-11-23T07:29:23.574Z,96830.00
2022-11-23T07:36:31.423Z,96835.00
2022-11-23T07:44:13.668Z,96837.00
2022-11-23T07:47:03.601Z,96829.00
2022-11-23T07:49:37.953Z,96835.00
2022-11-23T07:52:19.798Z,96815.00
2022-11-23T07:56:01.307Z,96838.00
2022-11-23T07:59:19.480Z,96852.00
2022-11-23T08:02:12.985Z,96848.00
2022-11-23T08:05:33.109Z,96848.00
2022-11-23T08:12:20.378Z,96844.00
2022-11-23T08:19:14.145Z,96848.00
2022-11-23T08:21:49.488Z,96837.00
2022-11-23T08:25:19.881Z,96846.00
2022-11-23T08:28:25.329Z,96842.00
2022-11-23T08:31:09.127Z,96848.00
2022-11-23T08:34:00.291Z,96850.00
2022-11-23T08:36:39.247Z,96841.00
2022-11-23T08:39:31.688Z,96833.00
2022-11-23T08:42:13.984Z,96847.00
2022-11-23T08:44:48.432Z,96857.00
2022-11-23T08:47:56.269Z,96832.00
2022-11-23T08:50:34.615Z,96852.00
2022-11-23T08:53:27.621Z,96848.00
2022-11-23T08:56:49.859Z,96855.00
2022-11-23T08:59:31.656Z,96862.00
2022-11-23T09:02:37.599Z,96856.00
2022-11-23T09:05:12.102Z,96876.00
2022-11-23T09:08:07.473Z,96863.00
2022-11-23T09:10:44.477Z,96849.00
2022-11-23T09:13:43.644Z,96846.00
2022-11-23T09:16:34.050Z,96861.00
2022-11-23T09:19:15.288Z,96867.00
2022-11-23T09:22:37.241Z,96853.00
2022-11-23T09:33:33.460Z,96856.00
2022-11-23T09:36:43.745Z,96870.00
2022-11-23T09:43:44.978Z,96852.00
2022-11-23T09:50:48.172Z,96856.00
2022-11-23T09:57:37.362Z,96844.00
2022-11-23T10:04:21.739Z,96835.00
2022-11-23T10:11:37.899Z,96828.00
2022-11-23T10:14:53.153Z,96827.00
2022-11-23T10:18:18.412Z,96820.00
2022-11-23T10:21:26.802Z,96839.00
2022-11-23T10:24:21.129Z,96822.00
2022-11-23T10:35:30.235Z,96844.00
2022-11-23T10:47:07.046Z,96832.00
2022-11-23T10:50:45.433Z,96834.00
2022-11-23T10:57:37.194Z,96815.00
2022-11-23T11:04:25.526Z,96805.00
2022-11-23T11:11:27.366Z,96839.00
2022-11-23T11:18:21.089Z,96834.00
2022-11-23T11:21:33.998Z,96818.00
2022-11-23T11:24:20.306Z,96797.00
2022-11-23T11:31:32.043Z,96821.00
2022-11-23T11:38:30.257Z,96791.00
2022-11-23T11:45:20.156Z,96809.00
2022-11-23T12:01:27.353Z,96796.00
2022-11-23T12:04:15.084Z,96794.00
2022-11-23T12:22:56.734Z,96750.00
2022-11-23T12:26:09.918Z,96762.00
2022-11-23T12:33:34.152Z,96754.00
2022-11-23T12:37:25.729Z,96760.00
2022-11-23T12:49:07.718Z,96755.00
2022-11-23T12:56:07.561Z,96754.00
2022-11-23T13:03:37.716Z,96751.00
2022-11-23T13:11:54.168Z,96745.00
2022-11-23T13:23:12.813Z,96744.00
2022-11-23T13:30:00.436Z,96718.00
2022-11-23T13:37:17.828Z,96732.00
2022-11-23T13:44:17.195Z,96722.00
2022-11-23T13:51:09.570Z,96733.00
2022-11-23T14:02:00.058Z,96716.00
2022-11-23T14:09:23.089Z,96717.00
2022-11-23T14:16:28.820Z,96690.00
2022-11-23T14:28:07.582Z,96697.00
2022-11-23T14:32:15.543Z,96699.00
2022-11-23T14:39:38.310Z,96693.00
2022-11-23T14:43:35.808Z,96695.00
2022-11-23T14:50:30.277Z,96687.00
2022-11-23T14:57:19.099Z,96687.00
2022-11-23T15:08:28.197Z,96666.00
2022-11-23T15:15:22.123Z,96655.00
2022-11-23T15:22:20.811Z,96654.00
2022-11-23T15:29:35.321Z,96650.00
2022-11-23T15:33:23.241Z,96659.00
2022-11-23T15:47:10.235Z,96636.00
2022-11-23T15:50:34.194Z,96652.00
2022-11-23T16:01:57.376Z,96650.00
2022-11-23T16:04:51.842Z,96641.00
2022-11-23T16:07:52.605Z,96649.00
2022-11-23T16:10:28.913Z,96618.00
2022-11-23T16:13:06.555Z,96651.00
2022-11-23T16:17:05.987Z,96658.00
2022-11-23T16:20:06.080Z,96661.00
2022-11-23T16:22:56.640Z,96674.00
2022-11-23T16:25:44.460Z,96689.00
2022-11-23T16:28:25.981Z,96674.00
2022-11-23T16:31:08.317Z,96698.00
2022-11-23T16:33:44.556Z,96691.00
2022-11-23T16:36:20.273Z,96705.00
2022-11-23T16:39:08.464Z,96708.00
2022-11-23T16:45:55.863Z,96716.00
2022-11-23T16:52:44.974Z,96732.00
2022-11-23T16:56:25.246Z,96740.00
2022-11-23T16:58:59.609Z,96734.00
2022-11-23T17:01:56.899Z,96750.00
2022-11-23T17:04:32.611Z,96760.00
2022-11-23T17:07:10.238Z,96763.00
2022-11-23T17:09:46.366Z,96786.00
2022-11-23T17:16:35.760Z,96801.00
2022-11-23T17:27:40.363Z,96818.00
2022-11-23T17:30:23.987Z,96831.00
2022-11-23T17:33:05.107Z,96804.00
2022-11-23T17:36:24.368Z,96807.00
2022-11-23T17:39:30.774Z,96833.00
2022-11-23T17:42:05.956Z,96845.00
2022-11-23T17:45:07.731Z,96849.00
2022-11-23T17:48:19.753Z,96870.00
2022-11-23T17:50:58.628Z,96864.00
2022-11-23T17:53:47.795Z,96886.00
2022-11-23T17:56:27.374Z,96896.00
2022-11-23T17:59:26.930Z,96873.00
2022-11-23T18:02:19.807Z,96884.00
2022-11-23T18:04:54.286Z,96866.00
2022-11-23T18:07:38.283Z,96889.00
2022-11-23T18:10:14.609Z,96908.00
2022-11-23T18:12:54.683Z,96872.00
2022-11-23T18:15:38.060Z,96895.00
2022-11-23T18:18:40.401Z,96911.00
2022-11-23T18:21:19.406Z,96891.00
2022-11-23T18:24:04.557Z,96915.00
2022-11-23T18:26:44.495Z,96897.00
2022-11-23T18:29:22.717Z,96915.00
2022-11-23T18:32:20.586Z,96921.00
2022-11-23T18:35:11.583Z,96922.00
2022-11-23T18:38:00.801Z,96924.00
2022-11-23T18:40:38.246Z,96932.00
2022-11-23T18:43:21.463Z,96909.00
2022-11-23T18:46:07.300Z,96926.00
2022-11-23T18:49:17.274Z,96915.00
2022-11-23T18:51:58.001Z,96923.00
2022-11-23T18:54:51.790Z,96924.00
2022-11-23T19:01:38.893Z,96951.00
2022-11-23T19:04:25.064Z,96933.00
2022-11-23T19:07:03.524Z,96923.00
2022-11-23T19:09:50.255Z,96963.00
2022-11-23T19:12:26.481Z,96969.00
2022-11-23T19:19:13.772Z,96978.00
2022-11-23T19:26:05.071Z,96968.00
2022-11-23T19:28:46.271Z,96967.00
2022-11-23T19:31:40.815Z,96993.00
2022-11-23T19:34:17.153Z,96989.00
2022-11-23T19:37:13.052Z,97004.00
2022-11-23T19:44:10.286Z,97019.00
2022-11-23T19:47:36.490Z,97020.00
2022-11-23T19:54:16.834Z,97020.00
2022-11-23T20:01:11.627Z,97047.00
2022-11-23T20:03:48.348Z,97046.00
2022-11-23T20:07:31.754Z,97082.00
2022-11-23T20:10:29.300Z,97074.00
2022-11-23T20:13:08.369Z,97087.00
2022-11-23T20:19:58.697Z,97104.00
2022-11-23T20:26:51.977Z,97119.00
2022-11-23T20:33:51.511Z,97129.00
2022-11-23T20:37:48.047Z,97142.00
2022-11-23T20:40:39.502Z,97171.00
2022-11-23T20:43:36.441Z,97151.00
2022-11-23T20:50:25.056Z,97180.00
2022-11-23T20:57:17.592Z,97187.00
2022-11-23T21:04:04.946Z,97216.00
2022-11-23T21:07:51.501Z,97225.00
2022-11-23T21:14:34.354Z,97234.00
2022-11-23T21:18:08.772Z,97243.00
2022-11-23T21:24:53.748Z,97262.00
2022-11-23T21:32:04.752Z,97269.00
2022-11-23T21:38:56.421Z,97299.00
2022-11-23T21:45:36.264Z,97288.00
2022-11-23T21:49:06.892Z,97298.00
2022-11-23T21:52:01.745Z,97302.00
2022-11-23T21:55:24.743Z,97295.00
2022-11-23T21:58:52.986Z,97316.00
2022-11-23T22:02:10.863Z,97313.00
2022-11-23T22:05:06.218Z,97338.00
2022-11-23T22:08:29.456Z,97341.00
2022-11-23T22:12:02.373Z,97335.00
2022-11-23T22:15:31.713Z,97334.00
2022-11-23T22:22:19.492Z,97342.00
2022-11-23T22:29:09.910Z,97362.00
2022-11-23T22:33:03.693Z,97354.00
2022-11-23T22:37:26.956Z,97367.00
2022-11-23T22:44:46.103Z,97370.00
2022-11-23T23:00:14.003Z,97382.00
2022-11-23T23:11:39.981Z,97390.00
2022-11-23T23:14:20.403Z,97400.00
2022-11-23T23:17:09.703Z,97413.00
2022-11-23T23:20:19.769Z,97408.00
2022-11-23T23:22:56.267Z,97387.00
2022-11-23T23:25:32.397Z,97405.00
2022-11-23T23:28:06.875Z,97407.00
2022-11-23T23:30:41.298Z,97427.00
2022-11-23T23:34:14.206Z,97441.00
2022-11-23T23:36:52.012Z,97418.00
2022-11-23T23:39:38.654Z,97426.00
2022-11-23T23:42:29.090Z,97422.00
2022-11-23T23:46:10.486Z,97443.00
2022-11-23T23:56:24.920Z,97421.00
